Time;durP1;ratioP1;P1;durP2;ratioP2;P2;SDS_P1;SDS_P2;PMS_P1;PMS_P2;Temp;Humidity;BMP_temperature;BMP_pressure;BME280_temperature;BME280_humidity;BME280_pressure;Samples;Min_cycle;Max_cycle;Signal;HPM_P1;HPM_P2
2023/12/17 15:13:13;;;;;;;;;10.25;6.00;;;;;9.21;79.01;103223.66;5708786;23;10499;-68
2023/12/17 15:15:42;;;;;;;;;11.50;8.50;;;;;9.19;79.38;103215.69;4933859;29;10509;-68
2023/12/17 15:18:08;;;;;;;;;10.75;8.75;;;;;9.16;79.10;103218.66;4948950;28;10389;-71
2023/12/17 15:20:36;;;;;;;;;9.00;9.00;;;;;9.04;78.77;103214.31;4952719;28;10581;-68
2023/12/17 15:23:03;;;;;;;;;7.00;7.00;;;;;9.04;79.19;103203.56;4944140;28;10402;-68
2023/12/17 15:25:32;;;;;;;;;8.50;8.00;;;;;9.10;79.29;103211.09;4938837;28;10412;-70
2023/12/17 15:27:59;;;;;;;;;6.00;6.00;;;;;9.16;78.88;103210.59;4947030;28;10290;-67
2023/12/17 15:30:25;;;;;;;;;12.00;6.75;;;;;9.16;79.00;103221.34;4947578;28;10275;-69
2023/12/17 15:32:54;;;;;;;;;4.50;3.50;;;;;9.22;79.10;103222.66;4946692;28;10402;-70
2023/12/17 15:35:21;;;;;;;;;7.25;6.00;;;;;9.18;79.07;103232.81;4945863;28;10341;-68
2023/12/17 15:37:47;;;;;;;;;8.50;8.50;;;;;9.16;78.72;103230.25;4948133;28;10385;-69
2023/12/17 15:40:14;;;;;;;;;8.25;8.00;;;;;9.12;78.75;103227.97;4939614;28;10575;-68
2023/12/17 15:42:41;;;;;;;;;7.00;6.50;;;;;9.05;78.88;103229.44;4911159;28;10363;-69
2023/12/17 15:45:08;;;;;;;;;10.25;8.00;;;;;9.06;79.39;103226.63;4946748;28;11240;-68
2023/12/17 15:47:35;;;;;;;;;6.50;6.00;;;;;8.99;79.36;103222.72;4934166;28;10313;-68
2023/12/17 15:50:07;;;;;;;;;6.00;6.00;;;;;9.00;79.55;103221.75;4928516;28;10451;-69
2023/12/17 15:52:34;;;;;;;;;7.50;7.50;;;;;8.89;79.45;103216.41;4950134;28;10408;-68
2023/12/17 15:55:01;;;;;;;;;13.50;7.75;;;;;8.87;79.58;103208.47;4946664;28;10607;-70
2023/12/17 15:57:28;;;;;;;;;7.25;7.00;;;;;8.87;79.88;103202.22;4945342;28;10511;-68
2023/12/17 15:59:54;;;;;;;;;13.00;7.50;;;;;8.82;79.70;103202.59;4945484;28;10474;-68
2023/12/17 16:02:21;;;;;;;;;9.25;9.00;;;;;8.82;79.31;103205.28;4947873;28;10570;-70
2023/12/17 16:04:47;;;;;;;;;9.50;7.00;;;;;8.83;79.79;103207.03;4943002;28;11298;-69
2023/12/17 16:07:14;;;;;;;;;11.00;7.50;;;;;8.81;79.56;103203.59;4946110;28;10571;-70
2023/12/17 16:09:40;;;;;;;;;14.00;12.00;;;;;8.78;79.55;103202.97;4946558;28;10743;-70
2023/12/17 16:12:08;;;;;;;;;8.50;8.50;;;;;8.74;80.05;103202.38;4945078;28;11263;-70
2023/12/17 16:14:34;;;;;;;;;15.00;12.75;;;;;8.71;79.76;103202.66;4928939;28;10536;-70
2023/12/17 16:17:01;;;;;;;;;9.75;9.00;;;;;8.69;79.81;103191.16;4942500;28;10581;-69
2023/12/17 16:19:27;;;;;;;;;15.00;12.25;;;;;8.61;79.90;103188.25;4951900;28;10851;-70
2023/12/17 16:21:57;;;;;;;;;9.00;8.75;;;;;8.61;79.76;103190.94;4927980;28;10875;-70
2023/12/17 16:24:23;;;;;;;;;7.50;7.50;;;;;8.56;79.92;103185.94;4951487;28;10608;-68
2023/12/17 16:26:50;;;;;;;;;13.25;10.00;;;;;8.60;79.50;103176.66;4943976;28;10501;-70
2023/12/17 16:29:17;;;;;;;;;15.50;11.50;;;;;8.65;79.40;103176.28;4951640;28;10747;-70
2023/12/17 16:31:43;;;;;;;;;11.50;10.50;;;;;8.66;80.08;103168.09;4937605;28;10646;-69
2023/12/17 16:34:10;;;;;;;;;10.75;9.50;;;;;8.63;80.06;103167.50;4942915;28;11433;-71
2023/12/17 16:36:41;;;;;;;;;11.50;7.50;;;;;8.67;80.58;103163.59;4949084;28;10843;-70
2023/12/17 16:39:08;;;;;;;;;11.25;10.50;;;;;8.73;80.17;103168.44;4945875;28;10751;-71
2023/12/17 16:41:37;;;;;;;;;12.75;12.50;;;;;8.75;80.07;103171.00;4944638;28;10704;-69
2023/12/17 16:44:03;;;;;;;;;15.25;14.50;;;;;8.64;80.13;103174.56;4944692;28;10768;-69
2023/12/17 16:46:30;;;;;;;;;10.00;9.75;;;;;8.60;80.34;103183.84;4942333;28;10903;-69
2023/12/17 16:48:58;;;;;;;;;16.00;13.75;;;;;8.58;80.95;103185.78;4946042;28;10805;-70
2023/12/17 16:51:26;;;;;;;;;18.25;13.00;;;;;8.55;80.85;103183.38;4944776;28;10772;-70
2023/12/17 16:53:53;;;;;;;;;15.50;14.25;;;;;8.47;81.08;103193.84;4931281;28;10748;-70
2023/12/17 16:56:22;;;;;;;;;19.50;15.75;;;;;8.48;81.33;103187.53;4946891;28;10869;-70
2023/12/17 16:58:50;;;;;;;;;17.50;11.75;;;;;8.50;81.63;103181.03;4948777;28;11030;-69
2023/12/17 17:01:16;;;;;;;;;19.25;15.50;;;;;8.45;81.84;103183.25;4930947;28;10860;-70
2023/12/17 17:03:43;;;;;;;;;20.00;18.25;;;;;8.37;82.01;103183.00;4949529;28;10926;-70
2023/12/17 17:06:11;;;;;;;;;18.25;17.25;;;;;8.30;82.46;103182.59;4947602;28;10912;-71
2023/12/17 17:08:38;;;;;;;;;16.25;14.75;;;;;8.29;82.18;103185.41;4946960;28;11003;-70
2023/12/17 17:11:04;;;;;;;;;15.75;14.00;;;;;8.32;82.25;103194.09;4938146;28;11012;-69
2023/12/17 17:13:39;;;;;;;;;20.25;18.00;;;;;8.30;82.48;103196.00;4928928;28;10942;-69
2023/12/17 17:16:06;;;;;;;;;23.50;19.00;;;;;8.21;82.48;103186.03;4953449;28;10994;-69
2023/12/17 17:18:33;;;;;;;;;25.75;21.25;;;;;8.14;82.60;103187.47;4952848;28;11220;-68
2023/12/17 17:20:59;;;;;;;;;17.75;15.50;;;;;8.17;83.44;103187.25;4952926;28;11120;-69
2023/12/17 17:23:27;;;;;;;;;20.00;20.00;;;;;8.11;83.03;103183.22;4957464;28;11019;-69
2023/12/17 17:25:53;;;;;;;;;20.25;16.75;;;;;8.07;83.21;103180.91;4955085;28;11271;-68
2023/12/17 17:28:20;;;;;;;;;22.00;20.50;;;;;7.93;83.39;103174.75;4959475;28;11190;-69
2023/12/17 17:30:47;;;;;;;;;16.50;15.50;;;;;7.88;83.90;103166.22;4937526;28;11178;-67
2023/12/17 17:33:13;;;;;;;;;20.00;17.25;;;;;7.88;83.85;103162.69;4913370;28;11179;-69
2023/12/17 17:35:40;;;;;;;;;23.00;18.00;;;;;7.96;83.45;103171.00;4951472;28;11360;-68
2023/12/17 17:38:06;;;;;;;;;20.50;18.00;;;;;7.95;83.37;103173.81;4936897;28;11110;-69
2023/12/17 17:40:33;;;;;;;;;23.25;20.00;;;;;7.89;83.85;103170.63;4932729;28;11093;-69
2023/12/17 17:43:01;;;;;;;;;17.75;15.50;;;;;7.89;83.84;103175.97;4942122;28;11185;-69
2023/12/17 17:45:27;;;;;;;;;19.25;16.25;;;;;7.96;83.36;103170.16;4935025;28;11087;-69
2023/12/17 17:47:54;;;;;;;;;24.25;20.00;;;;;7.89;83.72;103173.28;4948425;28;11164;-70
2023/12/17 17:50:20;;;;;;;;;18.00;16.75;;;;;7.88;83.47;103182.31;4949740;29;11253;-70
2023/12/17 17:52:47;;;;;;;;;19.25;18.75;;;;;7.92;83.60;103178.44;4942379;28;11006;-69
2023/12/17 17:55:13;;;;;;;;;23.75;20.75;;;;;7.89;83.52;103177.81;4930920;28;11210;-69
2023/12/17 17:57:40;;;;;;;;;20.75;16.75;;;;;7.88;83.11;103185.00;4953261;28;12034;-69
2023/12/17 18:00:08;;;;;;;;;17.50;15.75;;;;;7.90;83.51;103184.91;4951107;28;11308;-69
2023/12/17 18:02:34;;;;;;;;;23.00;18.50;;;;;7.85;83.49;103185.25;4944732;28;11070;-70
2023/12/17 18:05:01;;;;;;;;;23.00;20.00;;;;;7.89;83.57;103194.75;4942256;28;11167;-68
2023/12/17 18:07:27;;;;;;;;;15.50;15.50;;;;;7.93;83.47;103203.41;4931768;28;11200;-69
2023/12/17 18:09:54;;;;;;;;;22.00;21.25;;;;;7.90;83.83;103201.00;4956248;28;11155;-68
2023/12/17 18:12:20;;;;;;;;;19.00;15.75;;;;;7.92;83.37;103202.56;4955184;28;11088;-69
2023/12/17 18:14:47;;;;;;;;;17.50;17.50;;;;;7.92;83.30;103202.56;4936099;28;11346;-68
2023/12/17 18:17:14;;;;;;;;;18.50;17.50;;;;;7.89;83.22;103196.59;4954510;28;11073;-71
2023/12/17 18:19:43;;;;;;;;;24.25;24.25;;;;;7.87;83.28;103196.72;4950202;28;11034;-69
2023/12/17 18:22:11;;;;;;;;;5.00;2.00;;;;;7.83;83.64;103189.88;4949919;28;11578;-69
2023/12/17 18:24:37;;;;;;;;;21.25;18.25;;;;;7.81;83.86;103190.97;4932959;28;11115;-69
2023/12/17 18:27:04;;;;;;;;;22.00;21.75;;;;;7.82;83.61;103188.19;4963052;28;11302;-69
2023/12/17 18:29:32;;;;;;;;;23.00;21.25;;;;;7.79;83.50;103198.28;4947600;28;11652;-69
2023/12/17 18:31:58;;;;;;;;;23.00;21.75;;;;;7.80;83.76;103189.25;4950340;28;11160;-70
2023/12/17 18:34:26;;;;;;;;;23.75;19.00;;;;;7.82;83.35;103190.84;4954621;28;11549;-69
2023/12/17 18:36:53;;;;;;;;;16.00;13.00;;;;;7.76;83.48;103190.47;4952121;28;11186;-69
2023/12/17 18:39:20;;;;;;;;;18.00;17.00;;;;;7.81;83.55;103190.97;4938717;28;11262;-70
2023/12/17 18:41:47;;;;;;;;;21.00;18.00;;;;;7.82;83.79;103182.81;4949397;28;11117;-70
2023/12/17 18:44:13;;;;;;;;;22.75;19.00;;;;;7.82;83.39;103180.13;4950929;28;11399;-69
2023/12/17 18:46:40;;;;;;;;;26.75;22.00;;;;;7.80;83.48;103173.16;4960460;28;11934;-69
2023/12/17 18:49:06;;;;;;;;;25.50;23.50;;;;;7.72;83.86;103171.06;4954109;28;11580;-69
2023/12/17 18:51:37;;;;;;;;;20.50;19.00;;;;;7.72;83.55;103183.63;4953976;28;11595;-69
2023/12/17 18:54:04;;;;;;;;;19.75;19.00;;;;;7.73;83.56;103178.13;4935403;28;11303;-69
2023/12/17 18:56:33;;;;;;;;;50.75;44.00;;;;;7.74;83.68;103179.88;4942566;28;11171;-69
2023/12/17 18:58:59;;;;;;;;;37.75;35.25;;;;;7.80;83.18;103182.06;4951568;28;11629;-68
2023/12/17 19:01:25;;;;;;;;;28.50;28.50;;;;;7.80;83.58;103194.63;4958312;28;11595;-70
2023/12/17 19:03:52;;;;;;;;;48.75;38.00;;;;;7.77;83.78;103184.97;4951375;28;12353;-68
2023/12/17 19:06:19;;;;;;;;;52.50;42.00;;;;;7.73;83.68;103188.88;4938205;28;11602;-70
2023/12/17 19:08:46;;;;;;;;;32.50;26.00;;;;;7.63;83.59;103193.25;4937071;28;11652;-70
2023/12/17 19:11:13;;;;;;;;;34.50;30.75;;;;;7.56;83.83;103189.31;4949557;28;11606;-71
2023/12/17 19:13:39;;;;;;;;;28.00;24.00;;;;;7.59;83.31;103186.41;4953486;28;11584;-68
2023/12/17 19:16:07;;;;;;;;;17.00;15.75;;;;;7.67;83.99;103194.72;4953830;28;11596;-69
2023/12/17 19:18:37;;;;;;;;;24.25;20.25;;;;;7.67;83.82;103203.59;4936081;28;11273;-69
2023/12/17 19:21:04;;;;;;;;;22.50;21.00;;;;;7.70;83.72;103210.56;4945310;28;11267;-69
2023/12/17 19:23:31;;;;;;;;;30.75;28.50;;;;;7.60;83.44;103215.75;4950191;28;11654;-69
2023/12/17 19:25:57;;;;;;;;;21.50;19.75;;;;;7.68;83.83;103205.31;4936984;28;11552;-70
2023/12/17 19:28:24;;;;;;;;;21.75;19.50;;;;;7.68;84.22;103188.38;4952695;28;11276;-70
2023/12/17 19:30:51;;;;;;;;;22.25;19.25;;;;;7.72;83.45;103189.84;4953134;28;11461;-68
2023/12/17 19:33:17;;;;;;;;;24.00;22.75;;;;;7.72;83.43;103180.94;4951174;28;11335;-70
2023/12/17 19:35:44;;;;;;;;;25.75;22.00;;;;;7.72;83.62;103189.00;4935989;28;11266;-69
2023/12/17 19:38:12;;;;;;;;;22.00;21.00;;;;;7.73;83.56;103172.78;4947289;28;11169;-70
2023/12/17 19:40:40;;;;;;;;;21.25;20.00;;;;;7.79;83.08;103174.16;4953231;28;11608;-71
2023/12/17 19:43:06;;;;;;;;;22.25;19.00;;;;;7.82;82.97;103179.25;4952850;28;11196;-67
2023/12/17 19:45:33;;;;;;;;;17.50;17.50;;;;;7.86;83.43;103183.44;4948742;28;11287;-71
2023/12/17 19:47:59;;;;;;;;;21.50;18.75;;;;;7.84;83.29;103180.84;4949605;28;11205;-70
2023/12/17 19:50:26;;;;;;;;;24.50;21.00;;;;;7.84;83.12;103172.81;4953370;28;11365;-69
2023/12/17 19:52:52;;;;;;;;;23.75;20.50;;;;;7.82;83.02;103166.72;4952896;28;11209;-68
2023/12/17 19:55:19;;;;;;;;;29.25;25.25;;;;;7.84;82.91;103163.91;4953941;28;11189;-70
2023/12/17 19:57:45;;;;;;;;;28.00;24.25;;;;;7.83;83.34;103152.34;4950697;28;11313;-68
2023/12/17 20:00:12;;;;;;;;;25.00;22.00;;;;;7.82;82.62;103150.63;4951783;28;11594;-69
2023/12/17 20:02:39;;;;;;;;;26.50;23.00;;;;;7.82;82.86;103155.13;4947335;28;11266;-69
2023/12/17 20:05:07;;;;;;;;;25.25;24.00;;;;;7.76;82.82;103151.09;4934931;28;11594;-68
2023/12/17 20:07:34;;;;;;;;;18.50;18.25;;;;;7.79;83.50;103150.88;4938088;28;11558;-68
2023/12/17 20:10:00;;;;;;;;;27.50;22.50;;;;;7.71;83.24;103149.75;4952076;28;11245;-68
2023/12/17 20:12:27;;;;;;;;;25.50;21.00;;;;;7.68;83.34;103148.16;4951958;28;11555;-70
2023/12/17 20:14:53;;;;;;;;;25.75;24.00;;;;;7.73;83.27;103145.97;4952841;28;11336;-68
2023/12/17 20:17:20;;;;;;;;;23.25;20.50;;;;;7.67;83.84;103143.78;4926999;28;11368;-69
2023/12/17 20:19:47;;;;;;;;;24.00;21.75;;;;;7.68;83.58;103140.97;4944632;28;11587;-70
2023/12/17 20:22:13;;;;;;;;;20.25;18.50;;;;;7.61;83.17;103141.56;4943751;28;11593;-70
2023/12/17 20:24:42;;;;;;;;;26.50;23.50;;;;;7.61;84.00;103146.91;4944025;28;11582;-69
2023/12/17 20:27:09;;;;;;;;;21.75;20.25;;;;;7.69;84.01;103139.13;4938451;28;11556;-69
2023/12/17 20:29:35;;;;;;;;;26.75;22.75;;;;;7.69;83.41;103139.13;4947373;28;11425;-69
2023/12/17 20:32:03;;;;;;;;;26.50;23.50;;;;;7.66;83.53;103156.34;4945869;28;11213;-69
2023/12/17 20:34:30;;;;;;;;;28.00;22.75;;;;;7.62;83.70;103148.66;4945667;28;11569;-69
2023/12/17 20:36:57;;;;;;;;;31.25;25.50;;;;;7.60;84.09;103139.84;4946728;28;11586;-70
2023/12/17 20:39:23;;;;;;;;;26.00;24.75;;;;;7.64;84.08;103141.34;4946518;28;11349;-70
2023/12/17 20:41:50;;;;;;;;;22.50;21.50;;;;;7.68;84.16;103149.00;4948048;28;11600;-70
2023/12/17 20:44:16;;;;;;;;;24.25;20.50;;;;;7.72;83.85;103160.34;4944396;28;11397;-68
2023/12/17 20:46:45;;;;;;;;;29.50;23.50;;;;;7.77;83.88;103163.53;4927711;28;11609;-70
2023/12/17 20:49:12;;;;;;;;;32.25;25.50;;;;;7.73;84.00;103147.81;4951100;28;11599;-69
2023/12/17 20:51:39;;;;;;;;;34.00;22.50;;;;;7.73;83.75;103145.97;4930241;28;11602;-70
2023/12/17 20:54:06;;;;;;;;;31.25;28.00;;;;;7.71;84.71;103147.09;4947123;28;11568;-70
2023/12/17 20:56:33;;;;;;;;;28.75;25.50;;;;;7.71;84.12;103149.75;4932474;28;11738;-70
2023/12/17 20:59:00;;;;;;;;;24.25;21.00;;;;;7.78;84.68;103159.00;4949584;28;11589;-69
2023/12/17 21:01:26;;;;;;;;;24.00;21.00;;;;;7.80;84.41;103151.72;4948540;28;11187;-69
2023/12/17 21:03:53;;;;;;;;;23.75;21.50;;;;;7.80;84.29;103149.88;4964590;28;11634;-69
2023/12/17 21:06:20;;;;;;;;;25.25;23.75;;;;;7.81;84.04;103148.06;4948707;28;11351;-69
2023/12/17 21:08:47;;;;;;;;;27.75;24.00;;;;;7.79;84.74;103150.88;4949775;28;12302;-69
2023/12/17 21:11:14;;;;;;;;;19.75;19.75;;;;;7.87;84.60;103153.81;4951156;28;11283;-69
2023/12/17 21:13:40;;;;;;;;;29.00;23.75;;;;;7.93;84.38;103158.69;4948884;28;11178;-69
2023/12/17 21:16:07;;;;;;;;;24.25;22.75;;;;;7.97;84.43;103161.97;4945757;28;11364;-69
2023/12/17 21:18:34;;;;;;;;;21.50;20.25;;;;;8.02;84.76;103165.19;4946861;28;11269;-69
2023/12/17 21:21:00;;;;;;;;;24.50;21.75;;;;;8.05;84.46;103164.06;4949905;28;11177;-68
2023/12/17 21:23:27;;;;;;;;;25.50;22.50;;;;;7.99;84.08;103172.59;4932725;28;11283;-69
2023/12/17 21:25:53;;;;;;;;;24.25;22.00;;;;;7.99;85.07;103176.13;4943481;29;11196;-68
2023/12/17 21:28:20;;;;;;;;;27.00;26.25;;;;;7.98;84.66;103176.22;4943843;28;11209;-70
2023/12/17 21:30:47;;;;;;;;;31.50;24.75;;;;;8.01;84.50;103173.31;4954219;28;11386;-69
2023/12/17 21:33:13;;;;;;;;;22.75;21.00;;;;;8.05;84.88;103177.47;4947795;28;11212;-69
2023/12/17 21:35:40;;;;;;;;;26.00;22.75;;;;;8.06;84.80;103165.75;4954118;28;11910;-69
2023/12/17 21:38:08;;;;;;;;;27.00;25.00;;;;;8.01;84.89;103167.97;4966818;23;11217;-63
2023/12/17 21:40:35;;;;;;;;;26.50;23.25;;;;;8.01;84.62;103173.31;4965514;28;11441;-66
2023/12/17 21:43:02;;;;;;;;;30.25;22.75;;;;;8.02;85.37;103164.28;4968629;28;11174;-65
2023/12/17 21:45:28;;;;;;;;;21.75;18.75;;;;;8.02;85.16;103161.59;4972179;28;10988;-65
2023/12/17 21:47:55;;;;;;;;;21.00;15.75;;;;;8.03;85.27;103169.56;4971442;28;11100;-63
2023/12/17 21:50:22;;;;;;;;;23.50;19.75;;;;;8.05;84.91;103169.44;4961042;28;11028;-64
2023/12/17 21:52:48;;;;;;;;;20.25;17.00;;;;;8.08;85.36;103175.41;4954137;28;11307;-65
2023/12/17 21:55:14;;;;;;;;;19.75;17.75;;;;;8.10;85.37;103173.47;4969383;28;11106;-64
2023/12/17 21:57:44;;;;;;;;;18.25;17.00;;;;;8.14;85.75;103171.38;4951865;28;11028;-65
2023/12/17 22:00:17;;;;;;;;;20.50;20.25;;;;;8.12;85.42;103168.81;4941767;28;11074;-63
2023/12/17 22:02:45;;;;;;;;;30.75;22.50;;;;;8.11;85.21;103158.22;4967785;28;11346;-64
2023/12/17 22:05:12;;;;;;;;;24.50;22.00;;;;;8.10;85.59;103160.06;4969760;28;11240;-64
2023/12/17 22:07:39;;;;;;;;;16.75;14.50;;;;;8.15;85.62;103157.84;4949441;28;11890;-64
2023/12/17 22:10:06;;;;;;;;;24.00;20.25;;;;;8.16;85.30;103156.88;4966475;28;11153;-64
2023/12/17 22:12:33;;;;;;;;;23.25;22.00;;;;;8.10;85.16;103157.38;4971129;28;11882;-64
2023/12/17 22:15:00;;;;;;;;;27.00;23.00;;;;;8.09;85.85;103161.00;4953827;28;11185;-65
2023/12/17 22:17:26;;;;;;;;;23.00;19.00;;;;;8.14;86.16;103155.28;4952116;28;11092;-64
2023/12/17 22:19:53;;;;;;;;;24.25;20.25;;;;;8.14;85.54;103148.13;4965831;28;10912;-65
2023/12/17 22:22:21;;;;;;;;;26.25;22.00;;;;;8.11;86.07;103151.03;4951721;28;11257;-65
2023/12/17 22:24:47;;;;;;;;;19.75;19.75;;;;;8.12;85.95;103142.00;4953771;28;11259;-65
2023/12/17 22:27:14;;;;;;;;;20.25;18.25;;;;;8.13;86.70;103143.69;4970609;28;11064;-66
2023/12/17 22:29:40;;;;;;;;;19.25;15.75;;;;;8.17;86.37;103145.16;4973447;28;11244;-65
2023/12/17 22:32:07;;;;;;;;;20.50;18.00;;;;;8.22;85.78;103152.00;4949872;28;11158;-66
2023/12/17 22:34:35;;;;;;;;;20.50;20.25;;;;;8.20;86.09;103140.53;4971178;28;11076;-65
2023/12/17 22:37:02;;;;;;;;;21.25;20.25;;;;;8.16;86.37;103137.25;4955871;28;11009;-65
2023/12/17 22:39:29;;;;;;;;;20.25;19.75;;;;;8.17;86.84;103131.75;4966256;28;11174;-66
2023/12/17 22:41:55;;;;;;;;;19.75;18.00;;;;;8.16;86.71;103135.41;4964728;28;11094;-64
2023/12/17 22:44:22;;;;;;;;;23.00;16.50;;;;;8.14;86.92;103125.78;4952942;28;11187;-64
2023/12/17 22:46:48;;;;;;;;;20.00;17.75;;;;;8.15;87.00;103139.09;4956558;28;11257;-65
2023/12/17 22:49:15;;;;;;;;;14.75;14.25;;;;;8.19;87.09;103142.38;4967641;28;10912;-65
2023/12/17 22:51:41;;;;;;;;;18.75;15.75;;;;;8.24;87.03;103150.91;4961074;28;10908;-65
2023/12/17 22:54:08;;;;;;;;;16.25;14.50;;;;;8.28;87.36;103146.16;4950029;28;10897;-65
2023/12/17 22:56:38;;;;;;;;;13.50;12.50;;;;;8.32;87.39;103145.78;4971316;28;10904;-64
2023/12/17 22:59:04;;;;;;;;;19.50;15.75;;;;;8.31;86.86;103133.34;4957205;28;10784;-65
2023/12/17 23:01:31;;;;;;;;;22.00;15.25;;;;;8.34;87.17;103133.06;4958748;28;10938;-65
2023/12/17 23:03:57;;;;;;;;;22.75;18.50;;;;;8.31;87.20;103135.19;4958209;28;10955;-65
2023/12/17 23:06:25;;;;;;;;;20.50;20.25;;;;;8.28;87.61;103133.59;4956285;28;11008;-65
2023/12/17 23:08:52;;;;;;;;;18.75;16.00;;;;;8.29;87.48;103135.28;4969919;28;11018;-64
2023/12/17 23:11:20;;;;;;;;;12.50;12.25;;;;;8.32;87.14;103136.88;4968660;28;10979;-64
2023/12/17 23:13:47;;;;;;;;;18.00;15.00;;;;;8.32;87.76;103131.50;4970311;28;10861;-65
2023/12/17 23:16:14;;;;;;;;;19.25;17.50;;;;;8.36;87.61;103133.81;4971887;28;10736;-64
2023/12/17 23:18:40;;;;;;;;;20.75;19.25;;;;;8.37;87.33;103137.38;4972752;28;10845;-64
2023/12/17 23:21:07;;;;;;;;;19.25;15.50;;;;;8.33;87.41;103134.06;4973208;28;10864;-63
2023/12/17 23:23:33;;;;;;;;;21.50;19.00;;;;;8.31;87.65;103124.44;4968530;28;11004;-65
2023/12/17 23:26:00;;;;;;;;;22.25;19.50;;;;;8.26;87.25;103132.84;4972085;28;10944;-65
2023/12/17 23:28:26;;;;;;;;;17.50;15.75;;;;;8.26;87.84;103131.97;4941172;28;11049;-63
2023/12/17 23:30:52;;;;;;;;;18.50;17.25;;;;;8.29;88.00;103132.59;4977065;28;10856;-64
2023/12/17 23:33:19;;;;;;;;;22.00;19.75;;;;;8.26;88.01;103123.94;4971870;28;10781;-64
2023/12/17 23:35:46;;;;;;;;;20.75;20.75;;;;;8.30;87.97;103117.34;4973649;28;10750;-65
2023/12/17 23:38:12;;;;;;;;;24.00;17.50;;;;;8.25;87.80;103115.03;4972308;28;11074;-64
2023/12/17 23:40:39;;;;;;;;;25.50;23.50;;;;;8.25;88.24;103114.19;4967314;28;11817;-64
2023/12/17 23:43:05;;;;;;;;;29.75;19.75;;;;;8.25;87.90;103114.19;4955334;28;12023;-62
2023/12/17 23:45:32;;;;;;;;;26.50;22.00;;;;;8.23;87.70;103111.63;4970656;28;11906;-65
2023/12/17 23:47:58;;;;;;;;;25.50;19.50;;;;;8.24;88.14;103109.81;4938632;28;11192;-64
2023/12/17 23:50:25;;;;;;;;;30.25;22.75;;;;;8.22;88.41;103101.00;4971806;28;11083;-64
2023/12/17 23:52:51;;;;;;;;;17.25;16.50;;;;;8.21;88.32;103115.41;4955111;28;11080;-64
2023/12/17 23:55:18;;;;;;;;;24.75;22.25;;;;;8.22;88.25;103117.97;4950802;28;10896;-65
2023/12/17 23:57:44;;;;;;;;;20.00;18.00;;;;;8.25;88.35;103117.72;4970669;28;11053;-65
